Brandon Pulisic

Scout - Vancouver Whitecaps
13 Feb 2028
Sunday
Process

Personality

Adaptability (3) Ambition (12) Controversy (17) Loyalty (12) Pressure (8) Professionalism (3) Sportsmanship (9) Temperament (8)

Profile

Coaching Style Democratic
License National A
Determination 10
Man Management 7
Motivating 11
Discipline 7
Job Satisfaction
100%
Fatigue
0%
Role Scout
Wage 48.2K p/w
Contract 14.03.2030

Performance

Behaviour Good
Training Effectiveness
30%
Player Development
40%
Injury Prevention
50%
Tactical Implementation
25%

Recent Events

Attended a recruitment meeting now
Recommended a transfer target now
Recommended a transfer target now
Recommended a transfer target now
Assessed a player now
Assessed a player now
Assessed a player 7d ago
Assessed a player 7d ago

Currently Monitoring

104
Player Club Status Ability Confidence Watched Last Observed Latest Vote
Ruben Ramos LA Galaxy Active 99 / 110 40% 4 12.02.2028 -
Romelle Donovan Brentford Active 122 / 130 40% 2 12.02.2028 -
Luca Meirelles Kudrivka Active 123 / 121 40% 2 12.02.2028 -
Zane Albarus Shrewsbury Town Active 103 / 99 40% 4 11.02.2028 -
Chris Rigg Sunderland Active 139 / 148 40% 3 11.02.2028 -
Sidiki Chérif Newcastle United Active 131 / 142 40% 2 11.02.2028 -
Eli Junior Kroupi Bournemouth Active 142 / 145 40% 2 09.02.2028 -
Ibrahim Fullah Charlton Athletic Active 120 / 138 40% 1 09.02.2028 -
Peter Amidu Acquah Asante Kotoko Active 95 / 103 40% 1 09.02.2028 -
Esquerdinha Notts County Active 113 / 134 40% 3 08.02.2028 -
Babis Kostoulas Oxford United Active 137 / 155 40% 4 08.02.2028 -
Xavier Jodamus Jomo Cosmos Active 82 / 90 40% 1 08.02.2028 -
Thulani Manyama SuperSport United Active 107 / 118 40% 3 05.02.2028 -
Igor Tyjon Barrow AFC Active 111 / 121 40% 2 05.02.2028 -
Fletcher Boyd Accrington Stanley Active 107 / 107 40% 1 05.02.2028 -
Mateus Mané Burnley Active 137 / 149 40% 4 04.02.2028 -
Tyler Fletcher Rotherham United Active 106 / 117 40% 2 04.02.2028 -
Bennet Mokoena Ajax Cape Town Active 112 / 114 40% 1 04.02.2028 -
Josh King Newcastle United Active 139 / 142 40% 4 02.02.2028 -
Ryan McAidoo Oldham Athletic Active 119 / 127 40% 3 02.02.2028 -
Ryan Kavuma-McQueen Accrington Stanley Active 125 / 134 40% 5 02.02.2028 -
Alex Verón Vélez Active 122 / 129 40% 4 01.02.2028 -
Christos Mouzakitis Hull City Active 141 / 137 40% 2 31.01.2028 -
Bautista Carboni Defensores Unidos Active 112 / 118 40% 3 31.01.2028 -
Alwande Booysen SuperSport United Active 89 / 100 40% 3 30.01.2028 -
Oscar Schwartau Norwich City Active 129 / 130 40% 1 30.01.2028 -
Omar Khedr Gillingham Active 103 / 125 40% 2 29.01.2028 -
Francisco Triver River Plate Active 94 / 98 40% 1 29.01.2028 -
Lwanda Mbanjwa Platinum Stars Active 99 / 108 40% 1 27.01.2028 -
Gabe Forsyth Colchester United Active 102 / 110 40% 3 24.01.2028 -
Amin Nabizada Exeter City Active 104 / 115 40% 1 24.01.2028 -
Luke Brooke-Smith Chesterfield Active 95 / 100 40% 1 22.01.2028 -
Josh Acheampong Everton Active 141 / 145 40% 5 21.01.2028 -
Josh Nichols Oldham Athletic Active 118 / 123 40% 4 21.01.2028 -
Valentino Acuña Newell's Old Boys Active 120 / 126 40% 1 21.01.2028 -
Ben Broggio Mansfield Town Active 107 / 118 40% 3 20.01.2028 -
Rio Ngumoha Plymouth Argyle Active 139 / 141 40% 3 18.01.2028 -
Jake Evans Crewe Alexandra Active 113 / 127 40% 2 17.01.2028 -
Nicolás Barros Schelotto Gimnasia La Plata Active 116 / 126 40% 1 17.01.2028 -
Gomolemo Kekana Maritzburg United Active 111 / 121 40% 1 17.01.2028 -
Luca Williams-Barnett Walsall Active 123 / 134 40% 2 16.01.2028 -
Leo Pecover Swindon Town Active 95 / 113 40% 1 16.01.2028 -
Lewis Orford Crewe Alexandra Active 114 / 124 40% 2 14.01.2028 -
Sindre Walle Egeli Udinese Active 136 / 145 40% 3 13.01.2028 -
Nana Nuhu WAFA Active 97 / 97 40% 1 12.01.2028 -
Archie Gray Southampton Active 147 / 153 40% 3 08.01.2028 -
Jayden Danns Bradford City Active 141 / 146 40% 2 08.01.2028 -
Honest Ahanor Atalanta Active 143 / 147 40% 2 08.01.2028 -
Rafael Moreno Atletico Venezuela Active 111 / 108 40% 2 07.01.2028 -
Flávio Gonçalves Sporting CP Active 124 / 130 40% 2 02.01.2028 -
Siyabonga Mabena Bidvest Wits Active 119 / 124 40% 1 14.12.2027 -
Onyeuche Ujunwa Ikorodu City Active 91 / 95 40% 3 12.12.2027 -
Musa Malik Ikorodu City Active 86 / 100 40% 1 11.12.2027 -
David Eke Enyimba Active 90 / 97 40% 1 11.12.2027 -
Nupe Godstime Bayelsa United Active 88 / 96 40% 1 10.12.2027 -
Victor Hernandez Santa Fe Active 124 / 118 40% 5 09.12.2027 -
Abdulrahman Hamisu Niger Tornadoes Active 87 / 92 40% 1 09.12.2027 -
Shea Lacey Crystal Palace Active 128 / 134 40% 1 08.12.2027 -
Caleb Yirenkyi Coventry City Active 142 / 144 40% 4 07.12.2027 -
Matias Siltanen Malmo FF Active 128 / 122 40% 2 07.12.2027 -
Chimobi Igwilo Rangers International Active 89 / 99 40% 1 06.12.2027 -
Julián Bazán New York Red Bulls Active 114 / 115 40% 3 30.10.2027 -
Vinícius Lira São Paulo Active 121 / 127 40% 2 30.10.2027 -
Edvard Pettersen Sandefjord Active 114 / 118 40% 1 30.10.2027 -
David Damboama El-Kanemi Warriors Active 84 / 92 40% 2 27.10.2027 -
Luka Vušković Tottenham Active 151 / 160 40% 1 27.10.2027 -
Joel Ezra Enyimba Active 97 / 103 40% 5 23.10.2027 -
Ayden Heaven Portsmouth Active 146 / 143 40% 3 23.10.2027 -
Ezra Mayers West Ham United Active 118 / 124 40% 1 23.10.2027 -
Esteban de Lima Tacuarembo Active 101 / 92 40% 2 19.10.2027 -
Olaniyi Saheed Kwara United Active 97 / 102 40% 1 19.10.2027 -
Matthew Litherland Harrogate Town Active 113 / 119 40% 4 18.10.2027 -
Riquelme Thompson-Jones Accrington Stanley Active 99 / 120 40% 1 18.10.2027 -
Godwin Oham Warri Wolves Active 85 / 92 40% 1 16.10.2027 -
Giovanni Leoni Lincoln City Active 146 / 150 40% 2 15.10.2027 -
Lucas Bergvall Tottenham Active 152 / 158 40% 2 14.10.2027 -
Adrian Skogmar Malmo FF Active 118 / 128 40% 1 12.10.2027 -
Ronan Kpakio AC Milan Active 119 / 122 40% 1 12.10.2027 -
Pedro Soma San Diego Football Club Active 105 / 106 40% 1 12.10.2027 -
Óscar Hinojosa Metropolitanos Active 79 / 89 40% 2 08.10.2027 -
Tiago Gordillo San Miguel Active 82 / 98 40% 1 08.10.2027 -
Trey Nyoni Rotherham United Active 143 / 136 40% 2 06.10.2027 -
Mohamed Moussa Koïta Mathare United Active 90 / 103 40% 1 06.10.2027 -
Malick Yalcouyé Brighton Active 128 / 137 40% 1 06.10.2027 -
Agustín De la Cuesta Racing Active 108 / 120 40% 2 05.10.2027 -
Daniel Idoko Ikorodu City Active 88 / 94 40% 3 05.10.2027 -
Gideon Manaseh Ikorodu City Active 90 / 97 40% 1 17.09.2027 -
Jonathan Bland Barnsley Active 110 / 123 40% 1 17.09.2027 -
Francisco Machis Llaneros Active 88 / 80 40% 1 17.09.2027 -
Lucas Camejo River Plate Active 84 / 97 40% 2 16.09.2027 -
Sebastián Ramírez Aguilas Doradas Active 98 / 104 40% 1 12.09.2027 -
Hosea Michael Remo Stars Active 88 / 91 40% 2 11.09.2027 -
Mbekezeli Mbokazi Chicago Fire Active 127 / 131 40% 1 09.09.2027 -
Issa Yusuf Shooting Stars Active 89 / 90 40% 2 08.09.2027 -
Lucan Louw US Bougouni Active 83 / 92 40% 1 08.09.2027 -
Johannes Eggestein Orlando City Negotiating 125 / 125 68% 1 08.07.2027 Approve
Seedy Jatta Austin FC Negotiating 118 / 122 67% 1 08.07.2027 Approve
Morgan Guilavogui Real Salt Lake Lost 126 / 126 69% 1 08.07.2027 -
Ramadan Ashour Sporting Cristal Negotiating 120 / 120 67% 1 08.07.2027 -
Ibrahim Sabiu Bendel Insurance Active 90 / 88 40% 1 07.07.2027 -
Gady Beyuku Blackburn Rovers Active 116 / 118 40% 1 05.07.2027 -
Charlie Gray Fleetwood Town Active 99 / 105 40% 1 05.07.2027 -
Antonio Galeano Remo Stars Active 122 / 122 40% 1 01.08.2026 -
Hakeem Odoffin Luton Town Active 119 / 112 40% 1 01.08.2026 -